Airfield :
LOGIN :

Register | Disclaimer

   EN    FR    IT 

 










Legend :    VFR   Marginal VFR   IFR   Intensive IFR   Very Intensive IFR
Visi :
Ceiling :
>= 8 km
>= 3000ft
5 to 8 km
1000 to 3000 ft
1500m to 5 km
500 to 1000 ft
800 to 1500m
200 to 500 ft
< 800m
< 200 ft
Symbols :   Thunderstorms  Fog  Heavy snow  Heavy precipitations  Wind > 20 kt
SIGMETs :     Misc.  Thunderstorms  Icing  Turbulence  Mountain Waves  Volcanic Ashes






- Airport Elevation : 989 ft
- IATA code : TRN


LIMF - Torino Caselle

CURRENT METAR :
  • 250750Z 33004KT 300V360 9999 -RA SCT030 BKN060 19/17 Q1015

EXPIRED METARs :
  • 250720Z 29005KT 9999 SCT020 BKN050 19/17 Q1015
  • 250650Z VRB02KT 8000 -RA BKN020 BKN050 18/17 Q1015 RERA
  • 250620Z 30008KT 6000 RA SCT006 BKN025 OVC055 17/17 Q1015
  • 250550Z 19004KT 140V200 6000 RA BKN025 OVC055 17/16 Q1015
  • 250520Z 10011KT 7000 -RA FEW005 BKN020 BKN050 17/16 Q1015
  • 250450Z VRB02KT 9999 BKN065 17/16 Q1013
  • 250420Z 28004KT 230V310 9999 BKN065 18/16 Q1013
  • 250350Z VRB01KT 9999 BKN065 17/16 Q1014
  • 250320Z 28005KT 8000 BKN060 17/16 Q1014
  • 250250Z VRB01KT 9999 SCT075 17/16 Q1014

TAF TAF LIMF
Valid from the 25 at 06:00 until the 26 at 06:00 UTC


250500Z 2506/2606 VRB05KT 9999 BKN070
TEMPO 2506/2515 4000 SHRA
TEMPO 2515/2522 4000 TSRA
TEMPO 2600/2606 4000 BR



MET'MAP, your aeronautical weather chart ! - Copyright ORBIFLY December 2007 - Disclaimer

ORBIFLY MET'MAP TEAM :

Programming & Development : Alexandra Zaïnal
Original concept : Baudouin d'Aumeries
Technical & hardware support : Manuel Goepfert
Assistance : Marc-Olivier Méhu




SOURCES & CREDITS :

   NOAA